Reno, Pennsylvania
Current Conditions -  °F | °C
As of 3:55 AM on Saturday 22 Nov 2014 (Local Time) from KFKL Reporting Station
Clear Clear  
Wind Chill:   Ceiling: Unl
Heat Index: 14°   Visibility: 10mi
Dew Point:   Wind: 7mph
Humidity: 62%   Direction: 180°S
Pressure: 30.34"   Gusts: NA
Location:  41.41°N, 79.75°W
Report Text: KFKL 220855Z AUTO 18006KT 10SM CLR M10/M16 A3034 RMK AO1 57014
Loading
Personal Weather Stations






























Interactive Weather Map New forecast layout! Learn more

10-Day Weather Forecast

Advertisements
Track Severe Weather on mobile